Time;durP1;ratioP1;P1;durP2;ratioP2;P2;SDS_P1;SDS_P2;PMS_P1;PMS_P2;Temp;Humidity;BMP_temperature;BMP_pressure;BME280_temperature;BME280_humidity;BME280_pressure;Samples;Min_cycle;Max_cycle;Signal;HPM_P1;HPM_P2
2022/02/24 12:41:55;;;;;;;5.90;3.15;;;8.50;99.90;;;;;;5090879;27;20583;-71
2022/02/24 12:44:22;;;;;;;3.70;3.08;;;8.60;99.90;;;;;;5090895;28;20198;-72
2022/02/24 12:46:48;;;;;;;3.65;3.35;;;8.80;99.90;;;;;;5090882;28;20232;-72
2022/02/24 12:49:14;;;;;;;3.17;2.90;;;8.90;99.90;;;;;;5090851;28;20171;-72
2022/02/24 12:51:39;;;;;;;4.25;3.65;;;9.00;99.90;;;;;;5090713;28;20168;-72
2022/02/24 12:54:05;;;;;;;3.90;3.47;;;9.10;99.90;;;;;;5090719;28;20206;-72
2022/02/24 12:56:37;;;;;;;6.82;3.55;;;9.10;99.90;;;;;;5090675;28;20172;-72
2022/02/24 12:59:09;;;;;;;4.55;3.10;;;9.10;99.90;;;;;;5090631;28;20175;-72
2022/02/24 13:01:36;;;;;;;5.22;3.05;;;9.10;99.90;;;;;;5090519;28;20203;-72
2022/02/24 13:04:10;;;;;;;4.07;2.63;;;9.10;99.90;;;;;;5090511;28;20159;-72
2022/02/24 13:06:38;;;;;;;3.38;3.08;;;9.10;99.90;;;;;;5090510;28;20246;-72
2022/02/24 13:11:58;;;;;;;6.53;3.00;;;8.90;99.90;;;;;;5090617;28;20194;-72
2022/02/24 13:14:24;;;;;;;4.47;2.67;;;8.90;99.90;;;;;;5090313;28;20221;-72
2022/02/24 13:16:49;;;;;;;5.70;2.63;;;8.80;99.90;;;;;;5090196;28;20552;-72
2022/02/24 13:19:18;;;;;;;5.72;2.22;;;8.90;99.90;;;;;;5090275;28;20172;-72
2022/02/24 13:21:45;;;;;;;2.97;2.40;;;8.80;99.90;;;;;;5089975;28;20283;-72
2022/02/24 13:24:10;;;;;;;4.50;2.67;;;8.90;99.90;;;;;;5090136;28;20195;-71
2022/02/24 13:26:40;;;;;;;3.17;1.90;;;8.90;99.90;;;;;;5090082;28;20204;-72
2022/02/24 13:29:09;;;;;;;6.53;2.80;;;8.90;99.90;;;;;;5088773;28;20175;-72
2022/02/24 13:31:35;;;;;;;3.08;1.60;;;8.90;99.90;;;;;;5089974;28;20176;-72
2022/02/24 13:34:30;;;;;;;6.50;1.88;;;8.90;99.90;;;;;;5089966;28;20629;-72
2022/02/24 13:37:03;;;;;;;1.63;1.63;;;8.90;99.90;;;;;;5087893;28;20183;-72
2022/02/24 13:39:34;;;;;;;4.63;1.67;;;8.90;99.90;;;;;;5089640;28;20204;-73
2022/02/24 13:42:00;;;;;;;5.60;2.20;;;8.90;99.90;;;;;;5089773;28;20209;-72
2022/02/24 13:44:27;;;;;;;2.80;1.60;;;9.00;99.90;;;;;;5089763;28;20171;-72
2022/02/24 13:47:04;;;;;;;2.33;1.50;;;9.10;99.90;;;;;;5089735;28;20168;-72
2022/02/24 13:49:35;;;;;;;2.72;1.75;;;9.20;99.90;;;;;;5088386;28;20175;-72
2022/02/24 13:52:03;;;;;;;1.70;1.60;;;9.30;99.90;;;;;;5083203;28;20595;-72
2022/02/24 13:54:29;;;;;;;4.90;2.38;;;9.50;99.90;;;;;;5076050;28;20164;-72
2022/02/24 13:56:55;;;;;;;5.80;1.60;;;9.60;99.90;;;;;;5074760;28;20164;-72
2022/02/24 13:59:22;;;;;;;1.83;1.73;;;9.60;99.90;;;;;;5076017;28;20528;-72
2022/02/24 14:01:53;;;;;;;1.80;1.52;;;9.80;99.90;;;;;;5075919;28;20188;-72
2022/02/24 14:04:22;;;;;;;3.00;1.83;;;9.30;99.90;;;;;;5075964;28;20226;-72
2022/02/24 14:06:47;;;;;;;1.58;1.48;;;10.00;99.90;;;;;;5075866;28;20634;-72
2022/02/24 14:09:25;;;;;;;5.55;1.67;;;10.20;99.90;;;;;;5075839;28;20176;-72
2022/02/24 14:11:52;;;;;;;2.45;1.50;;;10.20;99.90;;;;;;5074533;28;20176;-72
2022/02/24 14:14:20;;;;;;;1.88;1.40;;;10.20;99.90;;;;;;5075743;28;20176;-72
2022/02/24 14:16:47;;;;;;;2.28;2.10;;;10.10;99.90;;;;;;5075739;28;20260;-72
2022/02/24 14:19:13;;;;;;;2.20;1.80;;;10.10;99.90;;;;;;5075571;28;20196;-72
2022/02/24 14:21:40;;;;;;;3.13;1.85;;;10.10;99.90;;;;;;5075416;28;20250;-72
2022/02/24 14:24:07;;;;;;;3.28;2.03;;;9.90;99.90;;;;;;5075579;28;20164;-72
2022/02/24 14:26:33;;;;;;;1.52;1.35;;;9.80;99.90;;;;;;5075502;28;20172;-72
2022/02/24 14:28:59;;;;;;;1.45;1.45;;;9.70;99.90;;;;;;5075526;28;20165;-72
2022/02/24 14:31:25;;;;;;;2.90;1.20;;;9.80;99.90;;;;;;5075370;28;20172;-72
2022/02/24 14:33:51;;;;;;;1.63;1.40;;;9.70;99.90;;;;;;5074127;28;20179;-72
2022/02/24 14:36:18;;;;;;;1.33;1.33;;;9.70;99.90;;;;;;5074051;28;20538;-72
2022/02/24 14:38:45;;;;;;;1.58;1.58;;;9.60;99.90;;;;;;5075298;28;20173;-72
2022/02/24 14:41:11;;;;;;;8.57;1.50;;;9.60;99.90;;;;;;5074983;28;20208;-72
2022/02/24 14:43:38;;;;;;;3.70;1.38;;;9.50;99.90;;;;;;5074000;28;20171;-72
2022/02/24 14:46:04;;;;;;;2.58;1.58;;;9.50;99.90;;;;;;5075098;28;20173;-72
2022/02/24 14:48:34;;;;;;;1.42;1.38;;;9.40;99.90;;;;;;5075053;28;20168;-72
2022/02/24 14:51:00;;;;;;;3.15;1.88;;;9.40;99.90;;;;;;5075033;28;20622;-72
2022/02/24 14:53:26;;;;;;;2.45;1.35;;;9.40;99.90;;;;;;5074961;28;20617;-72
2022/02/24 14:55:52;;;;;;;2.53;1.50;;;9.30;99.90;;;;;;5074929;28;20177;-72
